Forside
METAR-TAF:

METAR-TAF

Lufthavne :

Tomahawk Regional Airport

Tomahawk, Wisconsin, USA

Breddekreds: 45-28-08N, længdekreds: 089-48-20W, højde: 453 m

Aktuelle vejr

Denne rapport blev lavet for 21 minutter siden, kl. 03:35 UTC
Vind 5 kt fra østsydøst
Temperatur -6°C
Fugtighed 86%
Tryk 1021 hPa
Sigt: 2.4 km
Overskyet i en højde af 1300 ft
let sne

METAR: KTKV 180335Z AUTO 11005KT 1 1/2SM -SN OVC013 M06/M08 A3014 RMK AO2 T10621076

Tid: 21:56 (03:56 UTC)


TAF: fraværende

Vejrobservationer og prognoser fra mere end 4000 lufthavne (METAR og TAF).

De gule og røde prikker repræsenterer de meteorologiske stationer.

Flyt musen over at se navnet på stationen.

Så klik over at se vejr observationer og prognoser.

At skifte det kort: Klik på de grønne knapper med et sort kors for at zoome ind; på den grønne knap med en bindestreg for at zoome ud; eller på de grønne pile for tilstødende kort.


METAR-TAF: